sensor_id;sensor_type;location;lat;lon;timestamp;P1;durP1;ratioP1;P2;durP2;ratioP2
20245;SDS011;10281;54.406;18.556;2023-08-01T00:00:43;5.83;;;3.53;;
20245;SDS011;10281;54.406;18.556;2023-08-01T00:03:10;4.70;;;3.40;;
20245;SDS011;10281;54.406;18.556;2023-08-01T00:05:39;3.97;;;3.40;;
20245;SDS011;10281;54.406;18.556;2023-08-01T00:08:11;6.23;;;3.70;;
20245;SDS011;10281;54.406;18.556;2023-08-01T00:10:39;5.20;;;3.53;;
20245;SDS011;10281;54.406;18.556;2023-08-01T00:13:06;5.50;;;3.70;;
20245;SDS011;10281;54.406;18.556;2023-08-01T00:15:33;6.67;;;3.77;;
20245;SDS011;10281;54.406;18.556;2023-08-01T00:18:00;6.60;;;3.53;;
20245;SDS011;10281;54.406;18.556;2023-08-01T00:20:27;4.40;;;3.40;;
20245;SDS011;10281;54.406;18.556;2023-08-01T00:22:54;6.77;;;3.90;;
20245;SDS011;10281;54.406;18.556;2023-08-01T00:25:20;5.33;;;3.47;;
20245;SDS011;10281;54.406;18.556;2023-08-01T00:27:47;5.13;;;3.47;;
20245;SDS011;10281;54.406;18.556;2023-08-01T00:30:13;6.93;;;3.90;;
20245;SDS011;10281;54.406;18.556;2023-08-01T00:32:41;6.70;;;3.87;;
20245;SDS011;10281;54.406;18.556;2023-08-01T00:35:08;5.23;;;3.30;;
20245;SDS011;10281;54.406;18.556;2023-08-01T00:37:35;4.57;;;3.90;;
20245;SDS011;10281;54.406;18.556;2023-08-01T00:40:04;5.20;;;3.43;;
20245;SDS011;10281;54.406;18.556;2023-08-01T00:42:31;6.87;;;3.90;;
20245;SDS011;10281;54.406;18.556;2023-08-01T00:44:58;5.70;;;3.93;;
20245;SDS011;10281;54.406;18.556;2023-08-01T00:47:26;6.00;;;3.40;;
20245;SDS011;10281;54.406;18.556;2023-08-01T00:49:52;5.50;;;3.30;;
20245;SDS011;10281;54.406;18.556;2023-08-01T00:52:19;4.17;;;3.60;;
20245;SDS011;10281;54.406;18.556;2023-08-01T00:54:46;7.03;;;3.73;;
20245;SDS011;10281;54.406;18.556;2023-08-01T00:57:12;6.60;;;3.97;;
20245;SDS011;10281;54.406;18.556;2023-08-01T00:59:40;5.20;;;3.53;;
20245;SDS011;10281;54.406;18.556;2023-08-01T01:02:06;5.53;;;3.30;;
20245;SDS011;10281;54.406;18.556;2023-08-01T01:04:33;4.67;;;3.17;;
20245;SDS011;10281;54.406;18.556;2023-08-01T01:07:00;5.00;;;3.07;;
20245;SDS011;10281;54.406;18.556;2023-08-01T01:09:29;4.80;;;3.30;;
20245;SDS011;10281;54.406;18.556;2023-08-01T01:11:58;8.10;;;3.67;;
20245;SDS011;10281;54.406;18.556;2023-08-01T01:14:26;5.27;;;3.13;;
20245;SDS011;10281;54.406;18.556;2023-08-01T01:16:53;5.37;;;3.20;;
20245;SDS011;10281;54.406;18.556;2023-08-01T01:19:20;4.63;;;3.10;;
20245;SDS011;10281;54.406;18.556;2023-08-01T01:21:46;4.70;;;2.87;;
20245;SDS011;10281;54.406;18.556;2023-08-01T01:24:14;5.17;;;3.20;;
20245;SDS011;10281;54.406;18.556;2023-08-01T01:26:43;3.80;;;3.20;;
20245;SDS011;10281;54.406;18.556;2023-08-01T01:29:12;6.27;;;2.90;;
20245;SDS011;10281;54.406;18.556;2023-08-01T01:31:40;2.93;;;2.67;;
20245;SDS011;10281;54.406;18.556;2023-08-01T01:34:08;6.67;;;2.73;;
20245;SDS011;10281;54.406;18.556;2023-08-01T01:36:35;5.80;;;2.70;;
20245;SDS011;10281;54.406;18.556;2023-08-01T01:39:02;3.93;;;2.47;;
20245;SDS011;10281;54.406;18.556;2023-08-01T01:41:29;5.43;;;2.80;;
20245;SDS011;10281;54.406;18.556;2023-08-01T01:43:55;3.77;;;2.40;;
20245;SDS011;10281;54.406;18.556;2023-08-01T01:46:22;5.73;;;2.50;;
20245;SDS011;10281;54.406;18.556;2023-08-01T01:48:48;3.93;;;2.50;;
20245;SDS011;10281;54.406;18.556;2023-08-01T01:51:15;3.50;;;2.27;;
20245;SDS011;10281;54.406;18.556;2023-08-01T01:53:41;6.17;;;3.00;;
20245;SDS011;10281;54.406;18.556;2023-08-01T01:56:08;3.20;;;2.47;;
20245;SDS011;10281;54.406;18.556;2023-08-01T01:58:35;2.90;;;2.30;;
20245;SDS011;10281;54.406;18.556;2023-08-01T02:01:02;3.33;;;2.60;;
20245;SDS011;10281;54.406;18.556;2023-08-01T02:03:28;3.60;;;2.70;;
20245;SDS011;10281;54.406;18.556;2023-08-01T02:05:55;2.83;;;2.50;;
20245;SDS011;10281;54.406;18.556;2023-08-01T02:08:21;4.27;;;3.00;;
20245;SDS011;10281;54.406;18.556;2023-08-01T02:10:48;2.93;;;2.60;;
20245;SDS011;10281;54.406;18.556;2023-08-01T02:13:16;3.10;;;2.50;;
20245;SDS011;10281;54.406;18.556;2023-08-01T02:15:42;3.70;;;2.73;;
20245;SDS011;10281;54.406;18.556;2023-08-01T02:18:09;4.53;;;3.00;;
20245;SDS011;10281;54.406;18.556;2023-08-01T02:20:36;3.07;;;2.60;;
20245;SDS011;10281;54.406;18.556;2023-08-01T02:23:03;3.90;;;2.67;;
20245;SDS011;10281;54.406;18.556;2023-08-01T02:25:30;5.47;;;2.83;;
20245;SDS011;10281;54.406;18.556;2023-08-01T02:27:56;4.70;;;3.00;;
20245;SDS011;10281;54.406;18.556;2023-08-01T02:30:23;3.80;;;2.90;;
20245;SDS011;10281;54.406;18.556;2023-08-01T02:32:49;5.37;;;3.10;;
20245;SDS011;10281;54.406;18.556;2023-08-01T02:35:16;3.63;;;3.00;;
20245;SDS011;10281;54.406;18.556;2023-08-01T02:37:43;4.60;;;2.83;;
20245;SDS011;10281;54.406;18.556;2023-08-01T02:40:10;4.93;;;2.90;;
20245;SDS011;10281;54.406;18.556;2023-08-01T02:42:37;4.63;;;3.37;;
20245;SDS011;10281;54.406;18.556;2023-08-01T02:45:04;4.57;;;3.10;;
20245;SDS011;10281;54.406;18.556;2023-08-01T02:47:31;5.03;;;3.20;;
20245;SDS011;10281;54.406;18.556;2023-08-01T02:49:57;4.10;;;3.33;;
20245;SDS011;10281;54.406;18.556;2023-08-01T02:52:24;3.70;;;2.93;;
20245;SDS011;10281;54.406;18.556;2023-08-01T02:54:51;4.53;;;3.17;;
20245;SDS011;10281;54.406;18.556;2023-08-01T02:57:17;4.13;;;3.10;;
20245;SDS011;10281;54.406;18.556;2023-08-01T02:59:44;5.03;;;3.30;;
20245;SDS011;10281;54.406;18.556;2023-08-01T03:02:10;4.60;;;3.10;;
20245;SDS011;10281;54.406;18.556;2023-08-01T03:04:37;5.43;;;3.40;;
20245;SDS011;10281;54.406;18.556;2023-08-01T03:07:04;6.90;;;3.53;;
20245;SDS011;10281;54.406;18.556;2023-08-01T03:09:32;4.57;;;3.40;;
20245;SDS011;10281;54.406;18.556;2023-08-01T03:11:59;3.37;;;3.03;;
20245;SDS011;10281;54.406;18.556;2023-08-01T03:14:25;4.10;;;3.10;;
20245;SDS011;10281;54.406;18.556;2023-08-01T03:16:52;4.10;;;3.20;;
20245;SDS011;10281;54.406;18.556;2023-08-01T03:19:18;4.23;;;2.87;;
20245;SDS011;10281;54.406;18.556;2023-08-01T03:21:45;4.60;;;3.43;;
20245;SDS011;10281;54.406;18.556;2023-08-01T03:24:12;3.67;;;3.13;;
20245;SDS011;10281;54.406;18.556;2023-08-01T03:26:38;5.27;;;3.40;;
20245;SDS011;10281;54.406;18.556;2023-08-01T03:29:05;5.67;;;3.13;;
20245;SDS011;10281;54.406;18.556;2023-08-01T03:31:32;5.70;;;3.40;;
20245;SDS011;10281;54.406;18.556;2023-08-01T03:33:58;5.23;;;3.30;;
20245;SDS011;10281;54.406;18.556;2023-08-01T03:36:25;4.80;;;3.43;;
20245;SDS011;10281;54.406;18.556;2023-08-01T03:38:52;4.00;;;3.20;;
20245;SDS011;10281;54.406;18.556;2023-08-01T03:41:18;5.57;;;3.10;;
20245;SDS011;10281;54.406;18.556;2023-08-01T03:43:45;4.53;;;3.00;;
20245;SDS011;10281;54.406;18.556;2023-08-01T03:46:12;3.80;;;3.40;;
20245;SDS011;10281;54.406;18.556;2023-08-01T03:48:38;4.20;;;3.30;;
20245;SDS011;10281;54.406;18.556;2023-08-01T03:51:05;10.50;;;7.50;;
20245;SDS011;10281;54.406;18.556;2023-08-01T03:53:32;6.03;;;3.70;;
20245;SDS011;10281;54.406;18.556;2023-08-01T03:55:59;4.00;;;3.50;;
20245;SDS011;10281;54.406;18.556;2023-08-01T03:58:25;9.97;;;3.50;;
20245;SDS011;10281;54.406;18.556;2023-08-01T04:00:52;4.47;;;3.10;;
20245;SDS011;10281;54.406;18.556;2023-08-01T04:03:19;3.20;;;2.90;;
20245;SDS011;10281;54.406;18.556;2023-08-01T04:05:47;4.47;;;3.20;;
20245;SDS011;10281;54.406;18.556;2023-08-01T04:08:13;4.13;;;3.20;;
20245;SDS011;10281;54.406;18.556;2023-08-01T04:10:40;4.47;;;3.03;;
20245;SDS011;10281;54.406;18.556;2023-08-01T04:13:06;3.80;;;3.30;;
20245;SDS011;10281;54.406;18.556;2023-08-01T04:15:33;4.33;;;3.13;;
20245;SDS011;10281;54.406;18.556;2023-08-01T04:18:00;5.63;;;3.20;;
20245;SDS011;10281;54.406;18.556;2023-08-01T04:20:26;3.63;;;3.07;;
20245;SDS011;10281;54.406;18.556;2023-08-01T04:22:53;5.67;;;3.33;;
20245;SDS011;10281;54.406;18.556;2023-08-01T04:25:20;5.83;;;3.87;;
20245;SDS011;10281;54.406;18.556;2023-08-01T04:27:48;5.40;;;3.53;;
20245;SDS011;10281;54.406;18.556;2023-08-01T04:30:15;4.33;;;3.10;;
20245;SDS011;10281;54.406;18.556;2023-08-01T04:32:41;6.23;;;3.30;;
20245;SDS011;10281;54.406;18.556;2023-08-01T04:35:08;4.97;;;3.40;;
20245;SDS011;10281;54.406;18.556;2023-08-01T04:37:35;4.60;;;3.63;;
20245;SDS011;10281;54.406;18.556;2023-08-01T04:40:01;5.07;;;3.60;;
20245;SDS011;10281;54.406;18.556;2023-08-01T04:42:28;4.50;;;3.50;;
20245;SDS011;10281;54.406;18.556;2023-08-01T04:44:55;5.20;;;3.40;;
20245;SDS011;10281;54.406;18.556;2023-08-01T04:47:23;4.37;;;3.47;;
20245;SDS011;10281;54.406;18.556;2023-08-01T04:49:50;6.00;;;3.40;;
20245;SDS011;10281;54.406;18.556;2023-08-01T04:52:16;5.03;;;3.20;;
20245;SDS011;10281;54.406;18.556;2023-08-01T04:54:43;6.17;;;3.57;;
20245;SDS011;10281;54.406;18.556;2023-08-01T04:57:10;4.10;;;3.27;;
20245;SDS011;10281;54.406;18.556;2023-08-01T04:59:36;4.30;;;3.30;;
20245;SDS011;10281;54.406;18.556;2023-08-01T05:02:03;4.47;;;3.43;;
20245;SDS011;10281;54.406;18.556;2023-08-01T05:04:30;4.97;;;3.57;;
20245;SDS011;10281;54.406;18.556;2023-08-01T05:06:56;4.50;;;3.27;;
20245;SDS011;10281;54.406;18.556;2023-08-01T05:09:23;6.47;;;3.53;;
20245;SDS011;10281;54.406;18.556;2023-08-01T05:11:49;7.20;;;3.97;;
20245;SDS011;10281;54.406;18.556;2023-08-01T05:14:16;6.90;;;3.93;;
20245;SDS011;10281;54.406;18.556;2023-08-01T05:16:43;6.17;;;3.70;;
20245;SDS011;10281;54.406;18.556;2023-08-01T05:19:10;5.40;;;3.70;;
20245;SDS011;10281;54.406;18.556;2023-08-01T05:21:36;5.27;;;3.80;;
20245;SDS011;10281;54.406;18.556;2023-08-01T05:24:03;8.20;;;4.07;;
20245;SDS011;10281;54.406;18.556;2023-08-01T05:26:30;6.23;;;3.90;;
20245;SDS011;10281;54.406;18.556;2023-08-01T05:28:56;6.30;;;3.87;;
20245;SDS011;10281;54.406;18.556;2023-08-01T05:31:23;6.13;;;3.80;;
20245;SDS011;10281;54.406;18.556;2023-08-01T05:33:49;4.97;;;3.73;;
20245;SDS011;10281;54.406;18.556;2023-08-01T05:36:16;5.30;;;3.87;;
20245;SDS011;10281;54.406;18.556;2023-08-01T05:38:43;6.17;;;4.10;;
20245;SDS011;10281;54.406;18.556;2023-08-01T05:41:09;6.33;;;3.93;;
20245;SDS011;10281;54.406;18.556;2023-08-01T05:43:36;5.23;;;3.83;;
20245;SDS011;10281;54.406;18.556;2023-08-01T05:46:02;4.57;;;3.80;;
20245;SDS011;10281;54.406;18.556;2023-08-01T05:48:29;5.53;;;4.07;;
20245;SDS011;10281;54.406;18.556;2023-08-01T05:50:56;5.67;;;4.40;;
20245;SDS011;10281;54.406;18.556;2023-08-01T05:53:23;5.60;;;3.70;;
20245;SDS011;10281;54.406;18.556;2023-08-01T05:55:50;4.33;;;3.43;;
20245;SDS011;10281;54.406;18.556;2023-08-01T05:58:17;5.90;;;4.07;;
20245;SDS011;10281;54.406;18.556;2023-08-01T06:00:44;5.53;;;4.23;;
20245;SDS011;10281;54.406;18.556;2023-08-01T06:03:10;6.87;;;3.90;;
20245;SDS011;10281;54.406;18.556;2023-08-01T06:05:37;5.40;;;4.23;;
20245;SDS011;10281;54.406;18.556;2023-08-01T06:08:06;8.03;;;3.97;;
20245;SDS011;10281;54.406;18.556;2023-08-01T06:10:34;7.37;;;4.10;;
20245;SDS011;10281;54.406;18.556;2023-08-01T06:13:01;5.37;;;3.90;;
20245;SDS011;10281;54.406;18.556;2023-08-01T06:15:27;4.73;;;4.10;;
20245;SDS011;10281;54.406;18.556;2023-08-01T06:17:54;5.17;;;3.80;;
20245;SDS011;10281;54.406;18.556;2023-08-01T06:20:21;7.70;;;4.27;;
20245;SDS011;10281;54.406;18.556;2023-08-01T06:22:48;6.27;;;4.27;;
20245;SDS011;10281;54.406;18.556;2023-08-01T06:25:15;7.87;;;4.50;;
20245;SDS011;10281;54.406;18.556;2023-08-01T06:27:41;6.20;;;4.13;;
20245;SDS011;10281;54.406;18.556;2023-08-01T06:30:08;5.60;;;4.07;;
20245;SDS011;10281;54.406;18.556;2023-08-01T06:32:35;5.43;;;4.37;;
20245;SDS011;10281;54.406;18.556;2023-08-01T06:35:02;5.17;;;3.80;;
20245;SDS011;10281;54.406;18.556;2023-08-01T06:37:29;5.73;;;4.13;;
20245;SDS011;10281;54.406;18.556;2023-08-01T06:39:57;6.97;;;3.83;;
20245;SDS011;10281;54.406;18.556;2023-08-01T06:42:25;7.30;;;4.13;;
20245;SDS011;10281;54.406;18.556;2023-08-01T06:44:51;6.73;;;4.10;;
20245;SDS011;10281;54.406;18.556;2023-08-01T06:47:18;4.67;;;3.87;;
20245;SDS011;10281;54.406;18.556;2023-08-01T06:49:44;6.17;;;4.13;;
20245;SDS011;10281;54.406;18.556;2023-08-01T06:52:11;6.10;;;4.20;;
20245;SDS011;10281;54.406;18.556;2023-08-01T06:54:38;4.90;;;4.30;;
20245;SDS011;10281;54.406;18.556;2023-08-01T06:57:06;4.67;;;3.87;;
20245;SDS011;10281;54.406;18.556;2023-08-01T06:59:33;6.07;;;3.90;;
20245;SDS011;10281;54.406;18.556;2023-08-01T07:02:00;6.03;;;4.47;;
20245;SDS011;10281;54.406;18.556;2023-08-01T07:04:27;6.07;;;4.47;;
20245;SDS011;10281;54.406;18.556;2023-08-01T07:06:54;6.00;;;3.90;;
20245;SDS011;10281;54.406;18.556;2023-08-01T07:09:20;7.30;;;4.73;;
20245;SDS011;10281;54.406;18.556;2023-08-01T07:11:47;6.23;;;4.33;;
20245;SDS011;10281;54.406;18.556;2023-08-01T07:14:14;5.37;;;4.27;;
20245;SDS011;10281;54.406;18.556;2023-08-01T07:16:40;5.80;;;4.43;;
20245;SDS011;10281;54.406;18.556;2023-08-01T07:19:07;7.83;;;4.47;;
20245;SDS011;10281;54.406;18.556;2023-08-01T07:21:34;6.13;;;4.23;;
20245;SDS011;10281;54.406;18.556;2023-08-01T07:24:00;6.83;;;4.47;;
20245;SDS011;10281;54.406;18.556;2023-08-01T07:26:27;5.40;;;4.37;;
20245;SDS011;10281;54.406;18.556;2023-08-01T07:28:54;5.70;;;4.27;;
20245;SDS011;10281;54.406;18.556;2023-08-01T07:31:21;7.10;;;4.43;;
20245;SDS011;10281;54.406;18.556;2023-08-01T07:33:48;6.77;;;4.43;;
20245;SDS011;10281;54.406;18.556;2023-08-01T07:36:14;7.10;;;4.47;;
20245;SDS011;10281;54.406;18.556;2023-08-01T07:38:41;7.07;;;4.30;;
20245;SDS011;10281;54.406;18.556;2023-08-01T07:41:07;6.17;;;4.37;;
20245;SDS011;10281;54.406;18.556;2023-08-01T07:43:34;6.53;;;4.20;;
20245;SDS011;10281;54.406;18.556;2023-08-01T07:46:01;5.30;;;4.30;;
20245;SDS011;10281;54.406;18.556;2023-08-01T07:48:27;6.53;;;4.90;;
20245;SDS011;10281;54.406;18.556;2023-08-01T07:50:54;6.23;;;4.40;;
20245;SDS011;10281;54.406;18.556;2023-08-01T07:53:20;5.47;;;4.33;;
20245;SDS011;10281;54.406;18.556;2023-08-01T07:55:47;6.30;;;4.47;;
20245;SDS011;10281;54.406;18.556;2023-08-01T07:58:14;5.23;;;4.70;;
20245;SDS011;10281;54.406;18.556;2023-08-01T08:00:41;7.40;;;4.33;;
20245;SDS011;10281;54.406;18.556;2023-08-01T08:03:08;6.13;;;4.50;;
20245;SDS011;10281;54.406;18.556;2023-08-01T08:05:34;5.87;;;4.50;;
20245;SDS011;10281;54.406;18.556;2023-08-01T08:08:04;5.67;;;4.30;;
20245;SDS011;10281;54.406;18.556;2023-08-01T08:10:31;6.47;;;4.63;;
20245;SDS011;10281;54.406;18.556;2023-08-01T08:12:58;5.53;;;4.43;;
20245;SDS011;10281;54.406;18.556;2023-08-01T08:15:24;5.90;;;4.60;;
20245;SDS011;10281;54.406;18.556;2023-08-01T08:17:51;7.67;;;5.17;;
20245;SDS011;10281;54.406;18.556;2023-08-01T08:20:18;6.23;;;5.10;;
20245;SDS011;10281;54.406;18.556;2023-08-01T08:22:45;6.00;;;5.40;;
20245;SDS011;10281;54.406;18.556;2023-08-01T08:25:11;5.43;;;4.60;;
20245;SDS011;10281;54.406;18.556;2023-08-01T08:27:38;6.80;;;5.53;;
20245;SDS011;10281;54.406;18.556;2023-08-01T08:30:05;8.23;;;5.50;;
20245;SDS011;10281;54.406;18.556;2023-08-01T08:32:32;7.83;;;5.30;;
20245;SDS011;10281;54.406;18.556;2023-08-01T08:34:59;6.67;;;5.73;;
20245;SDS011;10281;54.406;18.556;2023-08-01T08:37:25;6.17;;;5.33;;
20245;SDS011;10281;54.406;18.556;2023-08-01T08:39:52;6.77;;;5.63;;
20245;SDS011;10281;54.406;18.556;2023-08-01T08:42:18;6.73;;;5.47;;
20245;SDS011;10281;54.406;18.556;2023-08-01T08:44:45;6.77;;;5.03;;
20245;SDS011;10281;54.406;18.556;2023-08-01T08:47:16;6.53;;;5.17;;
20245;SDS011;10281;54.406;18.556;2023-08-01T08:49:44;9.17;;;5.10;;
20245;SDS011;10281;54.406;18.556;2023-08-01T08:52:12;7.20;;;4.97;;
20245;SDS011;10281;54.406;18.556;2023-08-01T08:54:39;7.53;;;4.93;;
20245;SDS011;10281;54.406;18.556;2023-08-01T08:57:06;5.80;;;4.80;;
20245;SDS011;10281;54.406;18.556;2023-08-01T08:59:34;5.77;;;4.30;;
20245;SDS011;10281;54.406;18.556;2023-08-01T09:02:02;5.17;;;4.63;;
20245;SDS011;10281;54.406;18.556;2023-08-01T09:04:31;7.33;;;4.87;;
20245;SDS011;10281;54.406;18.556;2023-08-01T09:07:00;5.63;;;4.43;;
20245;SDS011;10281;54.406;18.556;2023-08-01T09:09:29;7.20;;;4.50;;
20245;SDS011;10281;54.406;18.556;2023-08-01T09:11:55;5.93;;;4.63;;
20245;SDS011;10281;54.406;18.556;2023-08-01T09:14:22;5.27;;;4.77;;
20245;SDS011;10281;54.406;18.556;2023-08-01T09:16:49;6.47;;;4.60;;
20245;SDS011;10281;54.406;18.556;2023-08-01T09:19:17;5.20;;;4.70;;
20245;SDS011;10281;54.406;18.556;2023-08-01T09:21:44;4.90;;;4.10;;
20245;SDS011;10281;54.406;18.556;2023-08-01T09:24:13;4.80;;;4.33;;
20245;SDS011;10281;54.406;18.556;2023-08-01T09:26:42;5.63;;;4.47;;
20245;SDS011;10281;54.406;18.556;2023-08-01T09:29:09;5.13;;;4.10;;
20245;SDS011;10281;54.406;18.556;2023-08-01T09:31:40;5.53;;;4.10;;
20245;SDS011;10281;54.406;18.556;2023-08-01T09:36:46;4.70;;;4.03;;
20245;SDS011;10281;54.406;18.556;2023-08-01T09:39:18;4.30;;;3.73;;
20245;SDS011;10281;54.406;18.556;2023-08-01T09:41:54;5.60;;;3.80;;
20245;SDS011;10281;54.406;18.556;2023-08-01T09:44:30;4.90;;;3.70;;
20245;SDS011;10281;54.406;18.556;2023-08-01T09:46:57;4.70;;;3.57;;
20245;SDS011;10281;54.406;18.556;2023-08-01T09:49:25;3.77;;;3.43;;
20245;SDS011;10281;54.406;18.556;2023-08-01T09:51:53;4.43;;;3.80;;
20245;SDS011;10281;54.406;18.556;2023-08-01T09:54:20;3.90;;;3.50;;
20245;SDS011;10281;54.406;18.556;2023-08-01T09:56:48;5.37;;;3.43;;
20245;SDS011;10281;54.406;18.556;2023-08-01T09:59:18;4.50;;;3.57;;
20245;SDS011;10281;54.406;18.556;2023-08-01T10:01:48;4.20;;;3.80;;
20245;SDS011;10281;54.406;18.556;2023-08-01T10:04:24;3.87;;;3.30;;
20245;SDS011;10281;54.406;18.556;2023-08-01T10:06:57;4.07;;;3.43;;
20245;SDS011;10281;54.406;18.556;2023-08-01T10:09:25;4.10;;;3.70;;
20245;SDS011;10281;54.406;18.556;2023-08-01T10:11:51;4.57;;;3.90;;
20245;SDS011;10281;54.406;18.556;2023-08-01T10:14:19;6.20;;;4.27;;
20245;SDS011;10281;54.406;18.556;2023-08-01T10:16:47;5.87;;;4.07;;
20245;SDS011;10281;54.406;18.556;2023-08-01T10:19:14;5.10;;;4.40;;
20245;SDS011;10281;54.406;18.556;2023-08-01T10:21:41;4.87;;;4.37;;
20245;SDS011;10281;54.406;18.556;2023-08-01T10:24:08;7.23;;;4.63;;
20245;SDS011;10281;54.406;18.556;2023-08-01T10:26:38;5.60;;;4.60;;
20245;SDS011;10281;54.406;18.556;2023-08-01T10:29:04;4.90;;;4.40;;
20245;SDS011;10281;54.406;18.556;2023-08-01T10:31:31;5.97;;;4.37;;
20245;SDS011;10281;54.406;18.556;2023-08-01T10:34:03;7.27;;;4.43;;
20245;SDS011;10281;54.406;18.556;2023-08-01T10:36:31;6.93;;;4.30;;
20245;SDS011;10281;54.406;18.556;2023-08-01T10:38:59;6.00;;;5.03;;
20245;SDS011;10281;54.406;18.556;2023-08-01T10:41:28;5.37;;;4.80;;
20245;SDS011;10281;54.406;18.556;2023-08-01T10:49:13;6.40;;;5.57;;
20245;SDS011;10281;54.406;18.556;2023-08-01T10:51:40;8.03;;;5.10;;
20245;SDS011;10281;54.406;18.556;2023-08-01T10:54:06;6.60;;;4.60;;
20245;SDS011;10281;54.406;18.556;2023-08-01T10:56:35;5.73;;;5.00;;
20245;SDS011;10281;54.406;18.556;2023-08-01T10:59:04;10.37;;;5.33;;
20245;SDS011;10281;54.406;18.556;2023-08-01T11:01:31;5.93;;;5.03;;
20245;SDS011;10281;54.406;18.556;2023-08-01T11:04:00;8.30;;;5.43;;
20245;SDS011;10281;54.406;18.556;2023-08-01T11:06:27;5.70;;;4.77;;
20245;SDS011;10281;54.406;18.556;2023-08-01T11:08:53;5.77;;;5.03;;
20245;SDS011;10281;54.406;18.556;2023-08-01T11:11:20;5.70;;;5.03;;
20245;SDS011;10281;54.406;18.556;2023-08-01T11:13:50;6.20;;;4.97;;
20245;SDS011;10281;54.406;18.556;2023-08-01T11:16:18;5.73;;;5.03;;
20245;SDS011;10281;54.406;18.556;2023-08-01T11:18:45;5.27;;;4.83;;
20245;SDS011;10281;54.406;18.556;2023-08-01T11:21:12;5.37;;;4.80;;
20245;SDS011;10281;54.406;18.556;2023-08-01T11:23:40;6.67;;;5.30;;
20245;SDS011;10281;54.406;18.556;2023-08-01T11:26:08;5.23;;;4.47;;
20245;SDS011;10281;54.406;18.556;2023-08-01T11:28:35;6.07;;;4.57;;
20245;SDS011;10281;54.406;18.556;2023-08-01T11:31:09;4.50;;;4.10;;
20245;SDS011;10281;54.406;18.556;2023-08-01T11:33:38;5.63;;;4.50;;
20245;SDS011;10281;54.406;18.556;2023-08-01T11:36:05;10.50;;;5.03;;
20245;SDS011;10281;54.406;18.556;2023-08-01T11:38:32;5.83;;;4.60;;
20245;SDS011;10281;54.406;18.556;2023-08-01T11:41:00;6.33;;;4.63;;
20245;SDS011;10281;54.406;18.556;2023-08-01T11:43:37;6.73;;;4.43;;
20245;SDS011;10281;54.406;18.556;2023-08-01T11:46:05;4.60;;;4.03;;
20245;SDS011;10281;54.406;18.556;2023-08-01T11:48:32;5.53;;;4.17;;
20245;SDS011;10281;54.406;18.556;2023-08-01T11:50:59;5.27;;;3.80;;
20245;SDS011;10281;54.406;18.556;2023-08-01T11:53:26;3.90;;;3.40;;
20245;SDS011;10281;54.406;18.556;2023-08-01T11:55:54;5.37;;;4.10;;
20245;SDS011;10281;54.406;18.556;2023-08-01T11:58:28;4.30;;;3.90;;
20245;SDS011;10281;54.406;18.556;2023-08-01T12:06:16;4.30;;;3.90;;
20245;SDS011;10281;54.406;18.556;2023-08-01T12:08:45;5.10;;;3.73;;
20245;SDS011;10281;54.406;18.556;2023-08-01T12:16:30;5.20;;;4.47;;
20245;SDS011;10281;54.406;18.556;2023-08-01T12:18:57;5.57;;;4.30;;
20245;SDS011;10281;54.406;18.556;2023-08-01T12:21:24;5.70;;;4.53;;
20245;SDS011;10281;54.406;18.556;2023-08-01T12:23:51;5.30;;;4.47;;
20245;SDS011;10281;54.406;18.556;2023-08-01T12:26:17;5.67;;;4.90;;
20245;SDS011;10281;54.406;18.556;2023-08-01T12:28:44;6.23;;;5.20;;
20245;SDS011;10281;54.406;18.556;2023-08-01T12:31:10;5.40;;;4.70;;
20245;SDS011;10281;54.406;18.556;2023-08-01T12:33:39;6.30;;;5.47;;
20245;SDS011;10281;54.406;18.556;2023-08-01T12:36:06;6.70;;;4.77;;
20245;SDS011;10281;54.406;18.556;2023-08-01T12:38:32;6.87;;;5.00;;
20245;SDS011;10281;54.406;18.556;2023-08-01T12:41:00;6.20;;;5.00;;
20245;SDS011;10281;54.406;18.556;2023-08-01T12:43:27;6.73;;;5.40;;
20245;SDS011;10281;54.406;18.556;2023-08-01T12:45:54;5.90;;;5.30;;
20245;SDS011;10281;54.406;18.556;2023-08-01T12:48:22;7.20;;;5.70;;
20245;SDS011;10281;54.406;18.556;2023-08-01T12:50:49;13.43;;;10.10;;
20245;SDS011;10281;54.406;18.556;2023-08-01T12:53:15;7.77;;;5.33;;
20245;SDS011;10281;54.406;18.556;2023-08-01T12:55:43;6.67;;;5.60;;
20245;SDS011;10281;54.406;18.556;2023-08-01T12:58:10;11.17;;;5.87;;
20245;SDS011;10281;54.406;18.556;2023-08-01T13:00:39;7.37;;;5.93;;
20245;SDS011;10281;54.406;18.556;2023-08-01T13:03:06;6.93;;;5.70;;
20245;SDS011;10281;54.406;18.556;2023-08-01T13:05:33;6.73;;;5.40;;
20245;SDS011;10281;54.406;18.556;2023-08-01T13:08:02;6.10;;;4.77;;
20245;SDS011;10281;54.406;18.556;2023-08-01T13:10:30;6.53;;;5.20;;
20245;SDS011;10281;54.406;18.556;2023-08-01T13:12:57;6.60;;;4.97;;
20245;SDS011;10281;54.406;18.556;2023-08-01T13:15:25;5.33;;;4.63;;
20245;SDS011;10281;54.406;18.556;2023-08-01T13:17:52;8.40;;;5.63;;
20245;SDS011;10281;54.406;18.556;2023-08-01T13:20:19;6.50;;;4.80;;
20245;SDS011;10281;54.406;18.556;2023-08-01T13:22:48;6.47;;;5.23;;
20245;SDS011;10281;54.406;18.556;2023-08-01T13:25:16;5.60;;;5.00;;
20245;SDS011;10281;54.406;18.556;2023-08-01T13:27:43;5.93;;;5.27;;
20245;SDS011;10281;54.406;18.556;2023-08-01T13:30:10;6.73;;;5.50;;
20245;SDS011;10281;54.406;18.556;2023-08-01T13:32:40;8.13;;;6.07;;
20245;SDS011;10281;54.406;18.556;2023-08-01T13:35:07;6.13;;;5.13;;
20245;SDS011;10281;54.406;18.556;2023-08-01T13:37:34;7.40;;;5.80;;
20245;SDS011;10281;54.406;18.556;2023-08-01T13:40:00;7.50;;;6.50;;
20245;SDS011;10281;54.406;18.556;2023-08-01T13:42:28;6.70;;;6.10;;
20245;SDS011;10281;54.406;18.556;2023-08-01T13:44:54;7.40;;;6.53;;
20245;SDS011;10281;54.406;18.556;2023-08-01T13:47:21;8.13;;;6.40;;
20245;SDS011;10281;54.406;18.556;2023-08-01T13:49:48;7.63;;;6.73;;
20245;SDS011;10281;54.406;18.556;2023-08-01T13:52:14;9.10;;;6.30;;
20245;SDS011;10281;54.406;18.556;2023-08-01T13:54:41;6.67;;;5.67;;
20245;SDS011;10281;54.406;18.556;2023-08-01T13:57:07;8.17;;;5.80;;
20245;SDS011;10281;54.406;18.556;2023-08-01T13:59:34;6.73;;;6.00;;
20245;SDS011;10281;54.406;18.556;2023-08-01T14:02:02;6.20;;;5.60;;
20245;SDS011;10281;54.406;18.556;2023-08-01T14:04:29;4.67;;;4.17;;
20245;SDS011;10281;54.406;18.556;2023-08-01T14:06:55;8.93;;;6.10;;
20245;SDS011;10281;54.406;18.556;2023-08-01T14:09:22;7.80;;;5.63;;
20245;SDS011;10281;54.406;18.556;2023-08-01T14:11:48;7.10;;;5.20;;
20245;SDS011;10281;54.406;18.556;2023-08-01T14:14:15;6.47;;;5.27;;
20245;SDS011;10281;54.406;18.556;2023-08-01T14:16:42;6.83;;;5.33;;
20245;SDS011;10281;54.406;18.556;2023-08-01T14:19:08;6.17;;;4.80;;
20245;SDS011;10281;54.406;18.556;2023-08-01T14:21:35;6.07;;;5.00;;
20245;SDS011;10281;54.406;18.556;2023-08-01T14:24:02;6.17;;;5.57;;
20245;SDS011;10281;54.406;18.556;2023-08-01T14:26:29;5.37;;;4.47;;
20245;SDS011;10281;54.406;18.556;2023-08-01T14:28:55;6.47;;;5.10;;
20245;SDS011;10281;54.406;18.556;2023-08-01T14:31:22;6.23;;;4.70;;
20245;SDS011;10281;54.406;18.556;2023-08-01T14:33:49;5.97;;;5.00;;
20245;SDS011;10281;54.406;18.556;2023-08-01T14:36:15;4.63;;;4.20;;
20245;SDS011;10281;54.406;18.556;2023-08-01T14:38:42;5.13;;;4.30;;
20245;SDS011;10281;54.406;18.556;2023-08-01T14:41:08;6.33;;;5.07;;
20245;SDS011;10281;54.406;18.556;2023-08-01T14:43:35;5.53;;;4.53;;
20245;SDS011;10281;54.406;18.556;2023-08-01T14:46:02;6.50;;;4.63;;
20245;SDS011;10281;54.406;18.556;2023-08-01T14:48:28;5.90;;;4.57;;
20245;SDS011;10281;54.406;18.556;2023-08-01T14:50:55;5.60;;;4.97;;